Norman, OK (73019)

11:36 PM CDT on September 02, 2014 (GMT -0500)
Sutton Place | Change Station
CLOSE
Current Station
Personal Weather Station
Location: Norman, OK
Elevation: 1171 ft
Nearby Weather Stations

Elev 1171 ft 35.24 °N, 97.43 °W | Updated 11 minutes ago

Clear
Clear
79.6 °F
Feels Like 82 °F
N
4.0
Wind Variable Wind from South

Today
High -- | Low -- °F
--% Chance of Precip.
Yesterday
High -- | Low -- °F
Precip. -- in
7:03 AM 7:55 PM
First Quarter, 58% visible
Pressure 29.94 in
Visibility 10.0 miles
Clouds Clear
Heat Index 82 °F
Dew Point 68 °F
Humidity 68%
Rainfall 0.00 in
Snow Depth Not available.
UV 0.0 out of 12
Pollen 10.50 out of 12
Ozone Good
PM2.5 Good
Flu Activity Not available.
METAR KOUN 030415Z AUTO 14010G14KT 10SM CLR 26/21 A2994 RMK AO2

More Conditions Fewer Conditions

Pressure 29.94 in
Visibility 10.0 miles
Clouds Clear
Heat Index 82 °F
Dew Point 68 °F
Humidity 68%
Rainfall 0.00 in
Snow Depth Not available.
UV 0.0 out of 12
Pollen 10.50 out of 12
Ozone Good
PM2.5 Good
Flu Activity Not available.
METAR KOUN 030415Z AUTO 14010G14KT 10SM CLR 26/21 A2994 RMK AO2

More Conditions Fewer Conditions

10-Day Weather Forecast

Almanac

Astronomy

Sep. 02, 2014 Rise Set
Actual Time 7:03 AM CDT 7:55 PM CDT
Civil Twilight 6:37 AM CDT 8:21 PM CDT
Nautical Twilight 6:06 AM CDT 8:51 PM CDT
Astronomical Twilight 5:34 AM CDT 9:22 PM CDT
Moon 2:32 PM CDT (9/2) 12:13 AM CDT (9/2)
Length of Visible Light 13h 43m
Length of Day
12h 52m
Tomorrow will be 2m 7s shorter.
First Quarter, 58% of the Moon is Illuminated
Sep 3
First Quarter
Sep 8
Full
Sep 15
Last Quarter
Sep 24
New
Oct 1
First Quarter

Today's Extremes

State Highs State Lows

Community

WunderPhotos

Upload Photos

1,749,870 photos uploaded!

Nearby

Air Quality

  Air Quality AQ Index Pollutant
Yesterday Good
OZONE
Yesterday Good
PM2.5
Current Good
PM2.5
Current Good
OZONE
Tuesday Moderate
OZONE
Tuesday Good
PM2.5
Wednesday Moderate
OZONE
Wednesday Good
PM2.5

Snow Depth

Station Depth Elevation
No new snow has been reported.

Earthquake Activity

City Distance Mag. Time & Date
Helena, Oklahoma 102 miles 3.2 3:05 AM CDT
2014-09-02
Medford, Oklahoma 107 miles 3.3 11:58 PM CDT
2014-09-01
Perry, Oklahoma 67 miles 3.1 6:46 AM CDT
2014-09-01
Jones, Oklahoma 28 miles 3.1 1:49 PM CDT
2014-08-31
Minimum magnitude displayed is 2.5.

Coastal Water Temperatures

Place Temperature
No Stations Reporting

Nearby Weather Stations